Terminal Aerodrome Forecast
Issued by NWS

Home | Current Version | Previous Version | Text Only | Print | Product List | Glossary On
Versions: 1 2 3 4 5 6 7 8 9 10 11 12 13 14
781
FTUS45 KABQ 231132
TAFFMN
TAF
KFMN 231132Z 2312/2412 09007KT P6SM SCT070
     FM231700 12008KT P6SM SCT080
     FM232100 13012KT P6SM VCSH BKN080
      TEMPO 2322/2402 VRB20G35KT 6SM -TSRA OVC050CB
     FM240600 09011KT P6SM BKN060=

USA.gov is the U.S. government's official web portal to all federal, state and local government web resources and services.